Time;durP1;ratioP1;P1;durP2;ratioP2;P2;SDS_P1;SDS_P2;PMS_P1;PMS_P2;Temp;Humidity;BMP_temperature;BMP_pressure;BME280_temperature;BME280_humidity;BME280_pressure;Samples;Min_cycle;Max_cycle;Signal;HPM_P1;HPM_P2
2023/01/07 00:00:48;;;;;;;1.60;1.20;;;;;;;-145.69;100.00;52594.91;5075214;28;20620;-84
2023/01/07 00:03:15;;;;;;;1.37;1.07;;;;;;;-145.69;100.00;52594.91;5075362;28;20203;-83
2023/01/07 00:05:42;;;;;;;2.73;1.23;;;;;;;-145.69;100.00;52581.03;5074586;28;20332;-84
2023/01/07 00:08:09;;;;;;;4.10;1.60;;;;;;;-145.69;100.00;52596.88;5074601;28;20202;-84
2023/01/07 00:10:35;;;;;;;2.70;1.70;;;;;;;-145.69;100.00;52586.97;5074868;28;20210;-84
2023/01/07 00:13:02;;;;;;;2.00;1.70;;;;;;;-145.69;100.00;52624.59;5074536;28;20197;-83
2023/01/07 00:15:30;;;;;;;1.83;1.30;;;;;;;-145.69;100.00;52588.97;5074659;28;20198;-83
2023/01/07 00:17:56;;;;;;;1.97;1.40;;;;;;;-145.69;100.00;52596.88;5073943;28;20202;-84
2023/01/07 00:20:22;;;;;;;2.23;1.00;;;;;;;-145.69;100.00;52612.72;5073918;28;20230;-84
2023/01/07 00:22:50;;;;;;;1.10;1.00;;;;;;;-145.69;100.00;52571.13;5073776;28;20220;-84
2023/01/07 00:25:16;;;;;;;1.30;1.03;;;;;;;-145.69;100.00;52598.84;5075595;28;20203;-84
2023/01/07 00:27:43;;;;;;;1.70;1.20;;;;;;;-145.69;100.00;52563.22;5075569;28;20199;-83
2023/01/07 00:30:11;;;;;;;1.30;1.20;;;;;;;-145.69;100.00;52577.06;5075772;28;20203;-83
2023/01/07 00:32:53;;;;;;;1.43;1.10;;;;;;;-145.69;100.00;52610.75;5074801;28;20199;-82
2023/01/07 00:35:23;;;;;;;1.87;1.10;;;;;;;-145.69;100.00;52598.84;5073788;28;20191;-82
2023/01/07 00:37:50;;;;;;;0.97;0.90;;;;;;;-145.69;100.00;52590.94;5074407;28;20202;-83
2023/01/07 00:40:17;;;;;;;1.00;0.90;;;;;;;-145.69;100.00;52594.91;5075292;28;20218;-82
2023/01/07 00:43:00;;;;;;;1.07;0.83;;;;;;;-145.69;100.00;52596.88;5075201;28;20593;-83
2023/01/07 00:45:27;;;;;;;1.20;0.90;;;;;;;-145.69;100.00;52598.84;5075169;28;20245;-83
2023/01/07 00:47:56;;;;;;;1.83;0.83;;;;;;;-145.69;100.00;52606.78;5075023;28;20203;-82
2023/01/07 00:50:25;;;;;;;1.43;0.90;;;;;;;-145.69;100.00;52583.00;5074755;28;20204;-83
2023/01/07 00:52:52;;;;;;;1.57;1.27;;;;;;;-145.69;100.00;52545.38;5074335;28;20210;-83
2023/01/07 00:55:18;;;;;;;1.93;1.50;;;;;;;-145.69;100.00;52579.06;5074304;28;20195;-82
2023/01/07 00:57:45;;;;;;;0.93;0.90;;;;;;;-145.69;100.00;52581.03;5074355;28;20203;-82
2023/01/07 01:00:13;;;;;;;1.97;1.43;;;;;;;-145.69;100.00;52602.81;5075279;28;20723;-83
2023/01/07 01:02:40;;;;;;;1.83;1.30;;;;;;;-145.69;100.00;52606.78;5077630;28;20212;-83
2023/01/07 01:05:09;;;;;;;2.27;1.30;;;;;;;-145.69;100.00;52575.09;5077005;28;20297;-83
2023/01/07 01:07:36;;;;;;;1.70;1.40;;;;;;;-145.69;100.00;52614.72;5077489;28;20202;-83
2023/01/07 01:10:04;;;;;;;2.37;1.23;;;;;;;-145.69;100.00;52579.06;5077334;28;20207;-82
2023/01/07 01:12:33;;;;;;;1.87;1.40;;;;;;;-145.69;100.00;52588.97;5078021;28;20203;-83
2023/01/07 01:14:59;;;;;;;2.10;1.53;;;;;;;-145.69;100.00;52575.09;5077138;28;20260;-83
2023/01/07 01:17:26;;;;;;;4.57;1.80;;;;;;;-145.69;100.00;52563.22;5077721;28;20199;-83
2023/01/07 01:19:52;;;;;;;1.70;1.50;;;;;;;-145.69;100.00;52586.97;5077597;28;20227;-83
2023/01/07 01:22:20;;;;;;;2.43;1.67;;;;;;;-145.69;100.00;52606.78;5078177;28;20584;-81
2023/01/07 01:24:46;;;;;;;2.10;1.50;;;;;;;-145.69;100.00;52604.81;5077882;28;20209;-82
2023/01/07 01:27:13;;;;;;;1.80;1.37;;;;;;;-145.69;100.00;52565.19;5077636;28;20202;-83
2023/01/07 01:29:39;;;;;;;1.50;1.30;;;;;;;-145.69;100.00;52583.00;5077107;28;20195;-84
2023/01/07 01:32:06;;;;;;;1.40;1.30;;;;;;;-145.69;100.00;52598.84;5077488;28;20202;-83
2023/01/07 01:34:32;;;;;;;1.70;1.30;;;;;;;-145.69;100.00;52596.88;5077795;28;20218;-84
2023/01/07 01:36:59;;;;;;;1.93;1.50;;;;;;;-145.69;100.00;52565.19;5076734;28;20198;-83
2023/01/07 01:39:27;;;;;;;1.40;1.23;;;;;;;-145.69;100.00;52575.09;5078186;28;20650;-83
2023/01/07 01:41:53;;;;;;;1.70;1.50;;;;;;;-145.69;100.00;52549.34;5077191;28;20227;-83
2023/01/07 01:44:48;;;;;;;2.33;1.37;;;;;;;-145.69;100.00;52616.69;5078030;28;20202;-83
2023/01/07 01:47:20;;;;;;;1.70;1.37;;;;;;;-145.69;100.00;52622.63;5064768;28;20198;-83
2023/01/07 01:49:52;;;;;;;1.70;1.40;;;;;;;-145.69;100.00;52602.81;5078793;28;20584;-82
2023/01/07 01:52:24;;;;;;;2.17;1.17;;;;;;;-145.69;100.00;52650.34;5077656;28;20199;-83
2023/01/07 01:54:57;;;;;;;1.17;1.03;;;;;;;-145.69;100.00;52571.13;5077765;28;20195;-83
2023/01/07 01:57:27;;;;;;;1.60;1.40;;;;;;;-145.69;100.00;52563.22;5078958;28;20226;-83
2023/01/07 01:59:55;;;;;;;1.97;1.30;;;;;;;-145.69;100.00;52618.66;5079367;28;20287;-83
2023/01/07 02:02:26;;;;;;;1.83;1.13;;;;;;;-145.69;100.00;52602.81;5079486;28;20199;-83
2023/01/07 02:04:54;;;;;;;1.88;1.45;;;;;;;-145.69;100.00;52610.75;5078966;28;20436;-83
2023/01/07 02:07:20;;;;;;;1.40;1.30;;;;;;;-145.69;100.00;52594.91;5078905;28;20203;-83
2023/01/07 02:09:56;;;;;;;1.50;1.20;;;;;;;-145.69;100.00;52608.75;5078833;28;20394;-83
2023/01/07 02:12:46;;;;;;;1.77;1.50;;;;;;;-145.69;100.00;52610.75;5077517;28;20199;-82
2023/01/07 02:15:18;;;;;;;2.30;1.57;;;;;;;-145.69;100.00;52577.06;5078803;28;20205;-83
2023/01/07 02:18:08;;;;;;;2.20;1.50;;;;;;;-145.69;100.00;52610.75;5080864;28;20203;-83
2023/01/07 02:21:08;;;;;;;2.30;1.30;;;;;;;-145.69;100.00;52614.72;5080888;28;20690;-83
2023/01/07 02:23:58;;;;;;;1.33;1.23;;;;;;;-145.69;100.00;52614.72;5075567;28;20213;-83
2023/01/07 02:26:56;;;;;;;1.80;1.47;;;;;;;-145.69;100.00;52602.81;5079065;28;20199;-84
2023/01/07 02:29:54;;;;;;;1.63;1.33;;;;;;;-145.69;100.00;52583.00;5078291;28;20198;-84
2023/01/07 02:32:35;;;;;;;1.63;1.40;;;;;;;-145.69;100.00;52592.91;5073864;28;20646;-84
2023/01/07 02:35:08;;;;;;;2.13;1.40;;;;;;;-145.69;100.00;52583.00;5078955;28;20669;-83
2023/01/07 02:37:44;;;;;;;2.60;1.67;;;;;;;-145.69;100.00;52622.63;5078722;28;20206;-84
2023/01/07 02:40:19;;;;;;;2.30;1.60;;;;;;;-145.69;100.00;52575.09;5078420;28;20199;-84
2023/01/07 02:42:56;;;;;;;2.33;1.30;;;;;;;-145.69;100.00;52592.91;5078670;28;20230;-84
2023/01/07 02:45:29;;;;;;;2.23;1.50;;;;;;;-145.69;100.00;52602.81;5079511;28;20191;-83
2023/01/07 02:47:59;;;;;;;2.60;1.70;;;;;;;-145.69;100.00;52596.88;5080352;28;20253;-84
2023/01/07 02:50:26;;;;;;;1.67;1.40;;;;;;;-145.69;100.00;52592.91;5078968;28;20198;-83
2023/01/07 02:52:52;;;;;;;1.50;1.30;;;;;;;-145.69;100.00;52592.91;5078860;28;20662;-83
2023/01/07 02:55:24;;;;;;;1.93;1.30;;;;;;;-145.69;100.00;52590.94;5078616;28;20199;-83
2023/01/07 02:58:18;;;;;;;2.90;1.80;;;;;;;-145.69;100.00;52575.09;5077276;28;20434;-83
2023/01/07 03:01:10;;;;;;;1.50;1.40;;;;;;;-145.69;100.00;52575.09;5078565;28;20704;-83
2023/01/07 03:03:56;;;;;;;2.63;1.97;;;;;;;-145.69;100.00;52569.16;5079247;28;20202;-83
2023/01/07 03:06:44;;;;;;;1.63;1.27;;;;;;;-145.69;100.00;52596.88;5079784;28;20249;-82
2023/01/07 03:09:21;;;;;;;1.87;1.70;;;;;;;-145.69;100.00;52606.78;5076816;28;20207;-83
2023/01/07 03:11:57;;;;;;;2.03;1.43;;;;;;;-145.69;100.00;52596.88;5076892;28;20212;-82
2023/01/07 03:14:34;;;;;;;2.37;1.70;;;;;;;-145.69;100.00;52590.94;5078367;28;20209;-82
2023/01/07 03:17:06;;;;;;;2.93;1.50;;;;;;;-145.69;100.00;52586.97;5078831;28;20206;-83
2023/01/07 03:19:38;;;;;;;1.57;1.43;;;;;;;-145.69;100.00;52602.81;5076992;28;20227;-82
2023/01/07 03:22:20;;;;;;;2.43;1.53;;;;;;;-145.69;100.00;52592.91;5078454;28;20743;-82
2023/01/07 03:24:54;;;;;;;3.60;1.50;;;;;;;-145.69;100.00;52553.31;5078932;28;20206;-83
2023/01/07 03:27:23;;;;;;;2.40;1.67;;;;;;;-145.69;100.00;52592.91;5079820;28;20206;-83
2023/01/07 03:29:54;;;;;;;2.67;1.67;;;;;;;-145.69;100.00;52618.66;5077628;28;20653;-82
2023/01/07 03:32:32;;;;;;;2.83;1.63;;;;;;;-145.69;100.00;52579.06;5075503;28;20253;-81
2023/01/07 03:35:01;;;;;;;1.73;1.33;;;;;;;-145.69;100.00;52590.94;5075158;28;20206;-82
2023/01/07 03:37:28;;;;;;;2.53;1.70;;;;;;;-145.69;100.00;52612.72;5074794;28;20206;-82
2023/01/07 03:39:56;;;;;;;1.97;1.43;;;;;;;-145.69;100.00;52600.84;5075509;28;20248;-82
2023/01/07 03:42:38;;;;;;;3.17;1.57;;;;;;;-145.69;100.00;52594.91;5075823;28;20245;-82
2023/01/07 03:45:07;;;;;;;2.80;1.83;;;;;;;-145.69;100.00;52630.53;5077372;28;20285;-83
2023/01/07 03:47:35;;;;;;;2.07;1.40;;;;;;;-145.69;100.00;52585.00;5077039;28;20541;-82
2023/01/07 03:50:03;;;;;;;2.70;1.73;;;;;;;-145.69;100.00;52606.78;5078589;28;20591;-83
2023/01/07 03:52:32;;;;;;;1.57;1.40;;;;;;;-145.69;100.00;52583.00;5075332;28;20202;-82
2023/01/07 03:54:59;;;;;;;2.23;1.60;;;;;;;-145.69;100.00;52620.66;5074619;28;20222;-82
2023/01/07 03:57:25;;;;;;;2.53;1.60;;;;;;;-145.69;100.00;52583.00;5075889;28;20210;-83
2023/01/07 03:59:54;;;;;;;1.80;1.50;;;;;;;-145.69;100.00;52616.69;5076765;28;20205;-82
2023/01/07 04:02:22;;;;;;;1.67;1.50;;;;;;;-145.69;100.00;52592.91;5076178;28;20226;-82
2023/01/07 04:04:49;;;;;;;2.17;1.20;;;;;;;-145.69;100.00;52557.28;5075609;28;20198;-81
2023/01/07 04:07:17;;;;;;;3.07;1.50;;;;;;;-145.69;100.00;52575.09;5075130;28;20202;-80
2023/01/07 04:09:48;;;;;;;1.93;1.30;;;;;;;-145.69;100.00;52608.75;5077146;28;20209;-82
2023/01/07 04:12:18;;;;;;;3.00;1.40;;;;;;;-145.69;100.00;52602.81;5077168;28;20319;-83
2023/01/07 04:14:45;;;;;;;2.10;1.30;;;;;;;-145.69;100.00;52606.78;5080993;28;20195;-83
2023/01/07 04:17:12;;;;;;;1.23;1.13;;;;;;;-145.69;100.00;52588.97;5082784;28;20198;-83
2023/01/07 04:19:39;;;;;;;2.00;1.40;;;;;;;-145.69;100.00;52598.84;5065632;28;20204;-83
2023/01/07 04:22:06;;;;;;;1.47;1.13;;;;;;;-145.69;100.00;52620.66;5062793;28;20231;-82
2023/01/07 04:24:33;;;;;;;1.43;1.13;;;;;;;-145.69;100.00;52614.72;5074612;28;20190;-83
2023/01/07 04:27:02;;;;;;;1.77;1.17;;;;;;;-145.69;100.00;52610.75;5081370;28;20202;-83
2023/01/07 04:29:30;;;;;;;1.53;1.00;;;;;;;-145.69;100.00;52590.94;5079054;28;20666;-84
2023/01/07 04:31:57;;;;;;;1.73;1.27;;;;;;;-145.69;100.00;52638.47;5081256;28;20360;-82
2023/01/07 04:34:24;;;;;;;1.20;1.10;;;;;;;-145.69;100.00;52602.81;5081945;28;20210;-82
2023/01/07 04:36:52;;;;;;;1.20;1.10;;;;;;;-145.69;100.00;52598.84;5085925;28;20203;-82
2023/01/07 04:39:19;;;;;;;1.33;1.13;;;;;;;-145.69;100.00;52592.91;5085821;28;20206;-83
2023/01/07 04:41:47;;;;;;;2.77;1.50;;;;;;;-145.69;100.00;52600.84;5085360;28;20233;-83
2023/01/07 04:44:16;;;;;;;1.17;1.07;;;;;;;-145.69;100.00;52579.06;5084912;28;20203;-84
2023/01/07 04:46:44;;;;;;;1.87;1.10;;;;;;;-145.69;100.00;52571.13;5084829;28;20203;-83
2023/01/07 04:49:11;;;;;;;4.70;1.40;;;;;;;-145.69;100.00;52573.13;5085180;28;20195;-83
2023/01/07 04:51:39;;;;;;;2.23;1.30;;;;;;;-145.69;100.00;52586.97;5083954;28;20213;-83
2023/01/07 04:54:08;;;;;;;1.40;1.23;;;;;;;-145.69;100.00;52594.91;5083400;28;20594;-82
2023/01/07 04:56:35;;;;;;;1.27;1.00;;;;;;;-145.69;100.00;52588.97;5085338;28;20199;-83
2023/01/07 04:59:03;;;;;;;1.50;1.30;;;;;;;-145.69;100.00;52606.78;5086495;28;20217;-82
2023/01/07 05:01:31;;;;;;;1.70;1.40;;;;;;;-145.69;100.00;52598.84;5084505;28;20466;-82
2023/01/07 05:03:58;;;;;;;3.03;1.70;;;;;;;-145.69;100.00;52585.00;5079776;28;20202;-82
2023/01/07 05:06:24;;;;;;;1.73;1.50;;;;;;;-145.69;100.00;52602.81;5082541;28;20206;-83
2023/01/07 05:08:51;;;;;;;1.70;1.27;;;;;;;-145.69;100.00;52610.75;5082331;28;20649;-83
2023/01/07 05:11:21;;;;;;;1.50;1.37;;;;;;;-145.69;100.00;52590.94;5080682;28;20621;-82
2023/01/07 05:13:48;;;;;;;2.37;1.80;;;;;;;-145.69;100.00;52586.97;5080186;28;20206;-84
2023/01/07 05:16:19;;;;;;;1.83;1.40;;;;;;;-145.69;100.00;52581.03;5084252;28;20234;-83
2023/01/07 05:18:45;;;;;;;2.43;1.80;;;;;;;-145.69;100.00;52594.91;5081879;28;20245;-83
2023/01/07 05:21:12;;;;;;;2.07;1.70;;;;;;;-145.69;100.00;52551.31;5081746;28;20302;-84
2023/01/07 05:23:39;;;;;;;3.47;2.00;;;;;;;-145.69;100.00;52586.97;5079822;28;20546;-83
2023/01/07 05:26:06;;;;;;;2.80;2.07;;;;;;;-145.69;100.00;52586.97;5082774;28;20235;-82
2023/01/07 05:28:32;;;;;;;3.47;1.90;;;;;;;-145.69;100.00;52575.09;5080896;28;20604;-82
2023/01/07 05:30:59;;;;;;;4.23;2.60;;;;;;;-145.69;100.00;52592.91;5080815;28;20206;-83
2023/01/07 05:33:27;;;;;;;4.13;2.57;;;;;;;-145.69;100.00;52602.81;5080853;28;20194;-83
2023/01/07 05:35:54;;;;;;;4.03;2.60;;;;;;;-145.69;100.00;52583.00;5081621;28;20194;-82
2023/01/07 05:38:20;;;;;;;3.10;2.20;;;;;;;-145.69;100.00;52610.75;5081711;28;20198;-83
2023/01/07 05:40:47;;;;;;;3.90;2.20;;;;;;;-145.69;100.00;52590.94;5080941;28;20199;-83
2023/01/07 05:43:14;;;;;;;3.70;2.47;;;;;;;-145.69;100.00;52590.94;5079563;28;20585;-84
2023/01/07 05:45:43;;;;;;;3.27;2.10;;;;;;;-145.69;100.00;52608.75;5080245;28;20611;-83
2023/01/07 05:48:10;;;;;;;2.70;1.97;;;;;;;-145.69;100.00;52600.84;5080327;28;20203;-84
2023/01/07 05:50:38;;;;;;;3.10;2.13;;;;;;;-145.69;100.00;52579.06;5080351;28;20195;-84
2023/01/07 05:53:05;;;;;;;3.00;2.33;;;;;;;-145.69;100.00;52594.91;5079452;28;20206;-84
2023/01/07 05:55:31;;;;;;;3.20;2.30;;;;;;;-145.69;100.00;52598.84;5079493;28;20203;-83
2023/01/07 05:57:58;;;;;;;3.70;2.73;;;;;;;-145.69;100.00;52585.00;5079426;28;20194;-84
2023/01/07 06:00:25;;;;;;;4.90;3.00;;;;;;;-145.69;100.00;52610.75;5079577;28;20276;-84
2023/01/07 06:02:51;;;;;;;5.03;3.03;;;;;;;-145.69;100.00;52590.94;5079489;28;20723;-84
2023/01/07 06:05:18;;;;;;;5.67;3.40;;;;;;;-145.69;100.00;52583.00;5082600;28;20604;-84
2023/01/07 06:07:46;;;;;;;6.93;3.57;;;;;;;-145.69;100.00;52614.72;5078418;28;20294;-82
2023/01/07 06:10:12;;;;;;;7.07;4.07;;;;;;;-145.69;100.00;52612.72;5075714;28;20612;-83
2023/01/07 06:12:41;;;;;;;7.60;3.90;;;;;;;-145.69;100.00;52602.81;5078464;28;20214;-83
2023/01/07 06:15:10;;;;;;;7.37;4.20;;;;;;;-145.69;100.00;52610.75;5079509;28;20198;-83
2023/01/07 06:17:37;;;;;;;6.80;3.97;;;;;;;-145.69;100.00;52606.78;5078574;28;20221;-83
2023/01/07 06:20:08;;;;;;;9.67;4.60;;;;;;;-145.69;100.00;52618.66;5081360;28;20198;-83
2023/01/07 06:22:34;;;;;;;7.23;4.63;;;;;;;-145.69;100.00;52569.16;5078961;28;20295;-84
2023/01/07 06:25:02;;;;;;;8.10;4.87;;;;;;;-145.69;100.00;52604.81;5080031;28;20198;-84
2023/01/07 06:27:29;;;;;;;12.33;5.77;;;;;;;-145.69;100.00;52594.91;5080436;28;20203;-83
2023/01/07 06:29:56;;;;;;;9.53;5.67;;;;;;;-145.69;100.00;52606.78;5080891;28;20290;-83
2023/01/07 06:32:22;;;;;;;9.20;5.53;;;;;;;-145.69;100.00;52577.06;5078632;28;20263;-83
2023/01/07 06:34:49;;;;;;;9.03;5.20;;;;;;;-145.69;100.00;52579.06;5080063;28;20203;-83
2023/01/07 06:37:16;;;;;;;11.70;6.27;;;;;;;-145.69;100.00;52590.94;5079313;28;20198;-84
2023/01/07 06:39:43;;;;;;;14.40;6.27;;;;;;;-145.69;100.00;52592.91;5077695;28;20195;-83
2023/01/07 06:42:11;;;;;;;13.37;7.60;;;;;;;-145.69;100.00;52616.69;5076819;28;20246;-84
2023/01/07 06:44:37;;;;;;;12.60;6.80;;;;;;;-145.69;100.00;52588.97;5076556;28;20238;-83
2023/01/07 06:47:04;;;;;;;10.53;6.10;;;;;;;-145.69;100.00;52590.94;5078450;28;20206;-83
2023/01/07 06:49:30;;;;;;;14.37;7.23;;;;;;;-145.69;100.00;52606.78;5080019;28;20209;-83
2023/01/07 06:51:57;;;;;;;10.27;5.93;;;;;;;-145.69;100.00;52624.59;5088964;28;20203;-83
2023/01/07 06:54:23;;;;;;;14.93;7.67;;;;;;;-145.69;100.00;52571.13;5084587;28;20213;-84
2023/01/07 06:56:50;;;;;;;13.63;7.57;;;;;;;-145.69;100.00;52583.00;5084602;28;20199;-84
2023/01/07 06:59:18;;;;;;;13.63;7.67;;;;;;;-145.69;100.00;52602.81;5081664;28;20677;-84
2023/01/07 07:01:44;;;;;;;12.93;7.17;;;;;;;-145.69;100.00;52632.53;5079789;28;20723;-83
2023/01/07 07:04:10;;;;;;;15.33;7.60;;;;;;;-145.69;100.00;52590.94;5080601;28;20203;-84
2023/01/07 07:06:37;;;;;;;19.67;9.00;;;;;;;-145.69;100.00;52596.88;5077427;28;20202;-83
2023/01/07 07:09:03;;;;;;;13.43;7.63;;;;;;;-145.69;100.00;52594.91;5077294;28;20202;-84
2023/01/07 07:11:30;;;;;;;14.50;7.27;;;;;;;-145.69;100.00;52602.81;5081672;28;20199;-84
2023/01/07 07:13:58;;;;;;;13.33;7.00;;;;;;;-145.69;100.00;52630.53;5080789;28;20199;-83
2023/01/07 07:16:29;;;;;;;15.83;7.07;;;;;;;-145.69;100.00;52575.09;5078463;28;20199;-83
2023/01/07 07:18:56;;;;;;;15.63;8.00;;;;;;;-145.69;100.00;52594.91;5079667;28;20725;-79
2023/01/07 07:21:22;;;;;;;18.13;8.03;;;;;;;-145.69;100.00;52606.78;5080254;28;20198;-83
2023/01/07 07:23:49;;;;;;;10.90;6.97;;;;;;;-145.69;100.00;52594.91;5079512;28;20261;-83
2023/01/07 07:26:15;;;;;;;11.80;7.27;;;;;;;-145.69;100.00;52592.91;5078651;28;20198;-83
2023/01/07 07:28:42;;;;;;;15.87;7.93;;;;;;;-145.69;100.00;52610.75;5078771;28;20202;-83
2023/01/07 07:31:09;;;;;;;12.37;7.00;;;;;;;-145.69;100.00;52606.78;5078339;28;20207;-84
2023/01/07 07:33:39;;;;;;;14.47;7.87;;;;;;;-145.69;100.00;52606.78;5076524;28;20205;-83
2023/01/07 07:36:06;;;;;;;12.00;7.17;;;;;;;-145.69;100.00;52604.81;5077855;28;20237;-84
2023/01/07 07:38:33;;;;;;;11.83;7.10;;;;;;;-145.69;100.00;52588.97;5076852;28;20206;-84
2023/01/07 07:41:00;;;;;;;15.47;7.10;;;;;;;-145.69;100.00;52618.66;5076554;28;20241;-83
2023/01/07 07:43:27;;;;;;;11.73;6.53;;;;;;;-145.69;100.00;52594.91;5076395;28;20246;-83
2023/01/07 07:45:53;;;;;;;10.53;6.20;;;;;;;-145.69;100.00;52610.75;5077262;28;20203;-84
2023/01/07 07:48:20;;;;;;;13.73;7.17;;;;;;;-145.69;100.00;52606.78;5079324;28;20527;-84
2023/01/07 07:50:52;;;;;;;11.80;7.17;;;;;;;-145.69;100.00;52583.00;5080647;28;20657;-83
2023/01/07 07:53:19;;;;;;;12.17;7.00;;;;;;;-145.69;100.00;52575.09;5077179;28;20207;-83
2023/01/07 07:55:47;;;;;;;10.37;6.60;;;;;;;-145.69;100.00;52588.97;5077012;28;20210;-84
2023/01/07 07:58:14;;;;;;;10.80;6.43;;;;;;;-145.69;100.00;52579.06;5078101;28;20207;-83
2023/01/07 08:00:41;;;;;;;11.70;6.90;;;;;;;-145.69;100.00;52596.88;5077375;28;20206;-83
2023/01/07 08:03:08;;;;;;;14.87;6.43;;;;;;;-145.69;100.00;52600.84;5075270;28;20678;-83
2023/01/07 08:05:34;;;;;;;10.67;6.43;;;;;;;-145.69;100.00;52598.84;5078004;28;20209;-83
2023/01/07 08:08:05;;;;;;;12.07;6.90;;;;;;;-145.69;100.00;52610.75;5080428;28;20300;-83
2023/01/07 08:10:31;;;;;;;19.23;7.10;;;;;;;-145.69;100.00;52581.03;5079990;28;20221;-83
2023/01/07 08:12:58;;;;;;;11.63;6.60;;;;;;;-145.69;100.00;52583.00;5080881;28;20224;-83
2023/01/07 08:15:25;;;;;;;14.67;6.53;;;;;;;-145.69;100.00;52596.88;5070584;28;20202;-84
2023/01/07 08:17:58;;;;;;;11.80;6.43;;;;;;;-145.69;100.00;52624.59;5059959;28;20666;-83
2023/01/07 08:20:24;;;;;;;11.37;6.47;;;;;;;-145.69;100.00;52583.00;5077160;28;20229;-83
2023/01/07 08:22:51;;;;;;;12.67;6.83;;;;;;;-145.69;100.00;52594.91;5079828;28;20649;-83
2023/01/07 08:25:19;;;;;;;10.53;6.50;;;;;;;-145.69;100.00;52624.59;5082369;28;20195;-83
2023/01/07 08:27:45;;;;;;;11.33;6.67;;;;;;;-145.69;100.00;52590.94;5082527;28;20207;-83
2023/01/07 08:30:12;;;;;;;10.90;6.33;;;;;;;-145.69;100.00;52586.97;5076959;28;20206;-83
2023/01/07 08:32:39;;;;;;;12.00;6.73;;;;;;;-145.69;100.00;52583.00;5076250;28;20225;-84
2023/01/07 08:35:06;;;;;;;10.47;5.97;;;;;;;-145.69;100.00;52586.97;5078683;28;20203;-83
2023/01/07 08:37:33;;;;;;;10.70;6.40;;;;;;;-145.69;100.00;52616.69;5078377;28;20203;-84
2023/01/07 08:39:59;;;;;;;10.03;5.93;;;;;;;-145.69;100.00;52602.81;5074954;28;20199;-83
2023/01/07 08:42:28;;;;;;;11.40;5.97;;;;;;;-145.69;100.00;52612.72;5075451;28;20232;-82
2023/01/07 08:44:54;;;;;;;11.50;6.60;;;;;;;-145.69;100.00;52579.06;5076423;28;20202;-83
2023/01/07 08:47:21;;;;;;;14.63;7.10;;;;;;;-145.69;100.00;52634.50;5075506;28;20245;-84
2023/01/07 08:49:47;;;;;;;46.67;14.30;;;;;;;-145.69;100.00;52602.81;5075972;28;20203;-84
2023/01/07 08:52:14;;;;;;;22.20;10.00;;;;;;;-145.69;100.00;52586.97;5074241;28;20203;-83
2023/01/07 08:54:40;;;;;;;13.87;7.83;;;;;;;-145.69;100.00;52590.94;5075754;28;20209;-83
2023/01/07 08:57:07;;;;;;;12.03;7.10;;;;;;;-145.69;100.00;52545.38;5074689;28;20198;-82
2023/01/07 08:59:37;;;;;;;12.00;7.20;;;;;;;-145.69;100.00;52592.91;5073876;28;20238;-83
2023/01/07 09:02:04;;;;;;;10.83;7.30;;;;;;;-145.69;100.00;52571.13;5073595;28;20199;-82
2023/01/07 09:04:30;;;;;;;13.57;7.47;;;;;;;-145.69;100.00;52594.91;5073766;28;20294;-82
2023/01/07 09:06:57;;;;;;;12.57;7.20;;;;;;;-145.69;100.00;52614.72;5074488;28;20199;-82
2023/01/07 09:09:23;;;;;;;13.87;7.53;;;;;;;-145.69;100.00;52600.84;5074350;28;20198;-82
2023/01/07 09:11:50;;;;;;;11.67;6.90;;;;;;;-145.69;100.00;52594.91;5073653;28;20199;-82
2023/01/07 09:14:16;;;;;;;13.97;7.23;;;;;;;-145.69;100.00;52588.97;5074325;28;20214;-83
2023/01/07 09:16:44;;;;;;;15.13;7.20;;;;;;;-145.69;100.00;52608.75;5074221;28;20202;-82
2023/01/07 09:19:10;;;;;;;12.47;6.57;;;;;;;-145.69;100.00;52586.97;5074209;28;20679;-82
2023/01/07 09:21:37;;;;;;;12.63;7.00;;;;;;;-145.69;100.00;52583.00;5073493;28;20207;-83
2023/01/07 09:24:03;;;;;;;12.77;7.60;;;;;;;-145.69;100.00;52608.75;5076354;28;20238;-83
2023/01/07 09:26:30;;;;;;;14.30;7.90;;;;;;;-145.69;100.00;52585.00;5075717;28;20251;-82
2023/01/07 09:28:56;;;;;;;11.60;6.57;;;;;;;-145.69;100.00;52622.63;5077014;28;20241;-84
2023/01/07 09:31:23;;;;;;;10.70;6.37;;;;;;;-145.69;100.00;52586.97;5081734;28;20207;-83
2023/01/07 09:33:51;;;;;;;12.27;7.13;;;;;;;-145.69;100.00;52559.25;5080147;28;20222;-83
2023/01/07 09:36:17;;;;;;;13.87;7.50;;;;;;;-145.69;100.00;52598.84;5076524;28;20199;-84
2023/01/07 09:38:44;;;;;;;13.00;7.67;;;;;;;-145.69;100.00;52594.91;5078023;28;20203;-84
2023/01/07 09:41:27;;;;;;;12.30;6.53;;;;;;;-145.69;100.00;52594.91;5075610;28;20199;-81
2023/01/07 09:43:59;;;;;;;12.63;7.37;;;;;;;-145.69;100.00;52594.91;5077047;28;20234;-82
2023/01/07 09:46:26;;;;;;;12.00;6.73;;;;;;;-145.69;100.00;52549.34;5076207;28;20194;-81
2023/01/07 09:48:59;;;;;;;12.83;7.83;;;;;;;-145.69;100.00;52583.00;5075597;28;20202;-81
2023/01/07 09:51:34;;;;;;;11.07;6.97;;;;;;;-145.69;100.00;52594.91;5078631;28;20213;-82
2023/01/07 09:54:03;;;;;;;9.30;6.10;;;;;;;-145.69;100.00;52596.88;5078955;28;20205;-83
2023/01/07 09:56:32;;;;;;;10.70;6.13;;;;;;;-145.69;100.00;52583.00;5077366;28;20198;-84
2023/01/07 09:59:01;;;;;;;12.43;7.00;;;;;;;-145.69;100.00;52592.91;5077407;28;20202;-81
2023/01/07 10:01:34;;;;;;;10.63;6.37;;;;;;;-145.69;100.00;52585.00;5073728;28;20290;-81
2023/01/07 10:04:18;;;;;;;11.77;6.73;;;;;;;-145.69;100.00;52575.09;5075125;28;20234;-82
2023/01/07 10:06:52;;;;;;;13.20;6.73;;;;;;;-145.69;100.00;52583.00;5075247;28;20294;-79
2023/01/07 10:09:33;;;;;;;13.93;7.03;;;;;;;-145.69;100.00;52583.00;5074640;28;20650;-80
2023/01/07 10:12:12;;;;;;;12.13;6.23;;;;;;;-145.69;100.00;52555.28;5072252;28;20237;-80
2023/01/07 10:14:50;;;;;;;11.27;6.17;;;;;;;-145.69;100.00;52559.25;5074446;28;20202;-78
2023/01/07 10:17:27;;;;;;;10.27;5.90;;;;;;;-145.69;100.00;52579.06;5074536;28;20252;-82
2023/01/07 10:20:02;;;;;;;8.90;5.50;;;;;;;-145.69;100.00;52575.09;5074725;28;20283;-82
2023/01/07 10:22:32;;;;;;;9.83;5.67;;;;;;;-145.69;100.00;52577.06;5074546;28;20206;-81
2023/01/07 10:25:03;;;;;;;18.47;9.23;;;;;;;-145.69;100.00;52559.25;5074973;28;20542;-81
2023/01/07 10:27:35;;;;;;;10.60;6.60;;;;;;;-145.69;100.00;52573.13;5074510;28;20206;-82
2023/01/07 10:30:04;;;;;;;10.83;6.63;;;;;;;-145.69;100.00;52575.09;5074556;28;20566;-81
2023/01/07 10:32:35;;;;;;;10.37;6.03;;;;;;;-145.69;100.00;52571.13;5073577;28;20202;-81
2023/01/07 10:35:06;;;;;;;10.40;6.10;;;;;;;-145.69;100.00;52602.81;5072571;28;20201;-82
2023/01/07 10:37:36;;;;;;;10.10;5.43;;;;;;;-145.69;100.00;52579.06;5074554;28;20222;-82
2023/01/07 10:40:18;;;;;;;9.20;5.43;;;;;;;-145.69;100.00;52579.06;5074341;28;20210;-82
2023/01/07 10:42:52;;;;;;;8.23;5.43;;;;;;;-145.69;100.00;52598.84;5053987;28;20231;-81
2023/01/07 10:45:34;;;;;;;12.07;6.23;;;;;;;-145.69;100.00;52616.69;5054305;28;20290;-81
2023/01/07 10:48:17;;;;;;;8.27;5.33;;;;;;;-145.69;100.00;52581.03;5054169;28;20214;-81
2023/01/07 10:51:00;;;;;;;9.90;5.70;;;;;;;-145.69;100.00;52608.75;5054223;28;20226;-81
2023/01/07 10:53:40;;;;;;;9.53;5.57;;;;;;;-145.69;100.00;52592.91;5053959;28;20203;-81
2023/01/07 10:56:21;;;;;;;10.83;5.90;;;;;;;-145.69;100.00;52602.81;5054886;28;20199;-82
2023/01/07 10:58:49;;;;;;;8.17;5.00;;;;;;;-145.69;100.00;52610.75;5054498;28;20206;-85
2023/01/07 11:01:22;;;;;;;8.70;5.03;;;;;;;-145.69;100.00;52586.97;5054749;28;20650;-82
2023/01/07 11:03:51;;;;;;;7.93;4.83;;;;;;;-145.69;100.00;52588.97;5055187;28;20804;-84
2023/01/07 11:06:26;;;;;;;8.47;5.00;;;;;;;-145.69;100.00;52557.28;5055469;28;20206;-82
2023/01/07 11:08:53;;;;;;;11.40;5.13;;;;;;;-145.69;100.00;52598.84;5053780;28;20752;-81
2023/01/07 11:11:23;;;;;;;7.73;4.43;;;;;;;-145.69;100.00;52575.09;5068071;28;20202;-81
2023/01/07 11:13:58;;;;;;;9.00;4.73;;;;;;;-145.69;100.00;52594.91;5073576;28;20561;-81
2023/01/07 11:16:28;;;;;;;8.00;5.47;;;;;;;-145.69;100.00;52586.97;5072198;28;20808;-81
2023/01/07 11:18:59;;;;;;;7.17;4.20;;;;;;;-145.69;100.00;52563.22;5073057;28;20210;-81